Time;durP1;ratioP1;P1;durP2;ratioP2;P2;SDS_P1;SDS_P2;PMS_P1;PMS_P2;Temp;Humidity;BMP_temperature;BMP_pressure;BME280_temperature;BME280_humidity;BME280_pressure;Samples;Min_cycle;Max_cycle;Signal;HPM_P1;HPM_P2
2023/08/31 00:49:19;;;;;;;9.18;2.10;;;12.70;99.90;;;;;;5056144;22;20049;-67
2023/08/31 00:51:48;;;;;;;6.55;2.55;;;12.70;99.90;;;;;;5066165;22;20045;-63
2023/08/31 00:54:16;;;;;;;4.07;2.05;;;12.70;99.90;;;;;;5041858;28;20120;-64
2023/08/31 00:56:42;;;;;;;5.93;2.85;;;12.70;99.90;;;;;;5060943;28;20104;-64
2023/08/31 00:59:07;;;;;;;4.15;2.30;;;12.60;99.90;;;;;;5059948;28;20130;-64
2023/08/31 01:01:48;;;;;;;7.53;2.42;;;12.60;99.90;;;;;;5061407;28;20043;-65
2023/08/31 01:04:33;;;;;;;7.07;2.20;;;12.60;99.90;;;;;;5059112;28;20040;-64
2023/08/31 01:07:34;;;;;;;3.45;2.50;;;12.60;99.90;;;;;;5063125;28;20122;-69
2023/08/31 01:10:19;;;;;;;4.35;2.50;;;12.60;99.90;;;;;;5048433;28;20053;-69
2023/08/31 01:12:52;;;;;;;5.28;2.65;;;12.60;99.90;;;;;;5066417;28;20049;-69
2023/08/31 01:15:18;;;;;;;6.68;2.95;;;12.60;99.90;;;;;;5070433;22;20061;-66
2023/08/31 01:17:50;;;;;;;4.70;2.60;;;12.60;99.90;;;;;;5034148;28;20044;-67
2023/08/31 01:20:21;;;;;;;5.65;2.70;;;12.60;99.90;;;;;;5051621;28;20063;-66
2023/08/31 01:22:55;;;;;;;6.20;2.50;;;12.60;99.90;;;;;;5051438;28;20052;-67
2023/08/31 01:25:21;;;;;;;6.43;2.78;;;12.60;99.90;;;;;;5051457;28;20072;-67
2023/08/31 01:27:47;;;;;;;6.97;2.70;;;12.60;99.90;;;;;;5051624;28;20033;-67
2023/08/31 01:30:13;;;;;;;4.43;2.38;;;12.60;99.90;;;;;;5051489;28;20040;-67
2023/08/31 01:32:45;;;;;;;5.57;2.38;;;12.60;99.90;;;;;;5050972;28;20041;-68
2023/08/31 01:35:11;;;;;;;7.18;2.47;;;12.60;99.90;;;;;;5051460;28;20045;-67
2023/08/31 01:37:47;;;;;;;3.97;2.53;;;12.70;99.90;;;;;;5050655;28;20041;-67
2023/08/31 01:40:27;;;;;;;6.13;2.63;;;12.60;99.90;;;;;;5051103;28;20051;-67
2023/08/31 01:42:54;;;;;;;3.50;2.28;;;12.70;99.90;;;;;;5051148;28;20076;-67
2023/08/31 01:45:22;;;;;;;5.13;2.75;;;12.70;99.90;;;;;;5051038;28;20381;-67
2023/08/31 01:47:48;;;;;;;6.32;2.90;;;12.70;99.90;;;;;;5050713;28;20048;-67
2023/08/31 01:50:14;;;;;;;6.43;2.95;;;12.70;99.90;;;;;;5050533;28;20092;-67
2023/08/31 01:52:40;;;;;;;7.20;3.03;;;12.50;99.90;;;;;;5050751;28;20079;-67
2023/08/31 01:55:06;;;;;;;4.72;2.65;;;12.60;99.90;;;;;;5050772;28;20500;-67
2023/08/31 01:57:33;;;;;;;4.97;3.25;;;12.60;99.90;;;;;;5050858;28;20052;-67
2023/08/31 01:59:59;;;;;;;4.30;2.85;;;12.50;99.90;;;;;;5050910;28;20074;-67
2023/08/31 02:02:25;;;;;;;5.15;2.97;;;12.50;99.90;;;;;;5032719;28;20095;-67
2023/08/31 02:04:51;;;;;;;6.45;3.08;;;12.50;99.90;;;;;;5050385;28;20041;-67
2023/08/31 02:07:17;;;;;;;5.22;3.00;;;12.50;99.90;;;;;;5050104;28;20836;-67
2023/08/31 02:09:43;;;;;;;6.38;3.65;;;12.60;99.90;;;;;;5050701;28;20069;-67
2023/08/31 02:12:12;;;;;;;5.60;3.00;;;12.50;99.90;;;;;;5032289;28;20507;-67
2023/08/31 02:14:38;;;;;;;7.70;4.03;;;12.50;99.90;;;;;;5050191;28;20064;-67
2023/08/31 02:17:04;;;;;;;7.53;3.85;;;12.50;99.90;;;;;;5050204;28;20043;-67
2023/08/31 02:19:30;;;;;;;6.70;3.58;;;12.60;99.90;;;;;;5050267;28;20045;-67
2023/08/31 02:21:56;;;;;;;6.07;3.70;;;12.50;99.90;;;;;;5050216;28;20048;-67
2023/08/31 02:24:21;;;;;;;4.28;3.25;;;12.60;99.90;;;;;;5050069;28;20041;-67
2023/08/31 02:26:48;;;;;;;5.28;3.85;;;12.60;99.90;;;;;;5050367;28;20408;-67
2023/08/31 02:29:14;;;;;;;4.13;3.33;;;12.60;99.90;;;;;;5050170;28;20079;-67
2023/08/31 02:31:41;;;;;;;5.28;3.13;;;12.60;99.90;;;;;;5049817;28;20072;-67
2023/08/31 02:34:07;;;;;;;4.57;3.20;;;12.60;99.90;;;;;;5049731;28;20059;-67
2023/08/31 02:36:32;;;;;;;5.57;3.78;;;12.60;99.90;;;;;;5032034;28;20479;-67
2023/08/31 02:38:58;;;;;;;4.22;3.40;;;12.60;99.90;;;;;;5049859;28;20551;-66
2023/08/31 02:41:24;;;;;;;6.15;3.28;;;12.60;99.90;;;;;;5049645;28;20041;-67
2023/08/31 02:43:52;;;;;;;8.27;3.80;;;12.50;99.90;;;;;;5032052;28;20059;-67
2023/08/31 02:46:18;;;;;;;5.18;3.85;;;12.60;99.90;;;;;;5049817;28;20044;-66
2023/08/31 02:48:44;;;;;;;5.85;3.80;;;12.60;99.90;;;;;;5031537;28;20480;-66
2023/08/31 02:51:10;;;;;;;7.70;3.60;;;12.60;99.90;;;;;;5049797;28;20053;-67
2023/08/31 02:53:36;;;;;;;8.02;4.07;;;12.50;99.90;;;;;;5031624;28;20103;-67
2023/08/31 02:56:02;;;;;;;5.55;3.60;;;12.40;99.90;;;;;;5049877;28;20128;-67
2023/08/31 02:58:28;;;;;;;5.78;4.07;;;12.50;99.90;;;;;;5049588;28;20439;-67
2023/08/31 03:00:55;;;;;;;6.75;4.28;;;12.40;99.90;;;;;;5049532;28;20767;-67
2023/08/31 03:03:21;;;;;;;4.75;4.03;;;12.40;99.90;;;;;;5049145;28;20045;-67
2023/08/31 03:05:47;;;;;;;8.38;4.40;;;12.40;99.90;;;;;;5049629;28;20052;-67
2023/08/31 03:08:13;;;;;;;7.68;4.22;;;12.40;99.90;;;;;;5049713;28;20459;-67
2023/08/31 03:10:39;;;;;;;6.68;4.18;;;12.40;99.90;;;;;;5049203;28;20025;-67
2023/08/31 03:13:05;;;;;;;6.18;4.30;;;12.30;99.90;;;;;;5050270;28;20045;-66
2023/08/31 03:15:34;;;;;;;9.27;5.55;;;12.40;99.90;;;;;;5049079;28;20756;-66
2023/08/31 03:18:00;;;;;;;10.60;4.70;;;12.30;99.90;;;;;;5031131;28;20127;-67
2023/08/31 03:20:26;;;;;;;7.97;5.30;;;12.30;99.90;;;;;;5049494;28;20124;-67
2023/08/31 03:22:51;;;;;;;6.30;4.97;;;12.40;99.90;;;;;;5049302;28;20128;-67
2023/08/31 03:25:17;;;;;;;8.15;5.05;;;12.30;99.90;;;;;;5048740;28;20037;-67
2023/08/31 03:27:43;;;;;;;4.65;4.25;;;12.30;99.90;;;;;;5049384;28;20041;-67
2023/08/31 03:30:10;;;;;;;7.20;4.75;;;12.30;99.90;;;;;;5048940;28;20080;-67
2023/08/31 03:32:35;;;;;;;5.90;4.63;;;12.30;99.90;;;;;;5014448;28;20210;-66
2023/08/31 03:35:04;;;;;;;5.13;4.18;;;12.30;99.90;;;;;;5049193;28;20041;-67
2023/08/31 03:37:30;;;;;;;5.07;4.57;;;12.30;99.90;;;;;;5030997;28;20052;-67
2023/08/31 03:39:56;;;;;;;5.68;4.15;;;12.30;99.90;;;;;;5049087;28;20037;-67
2023/08/31 03:42:21;;;;;;;4.78;3.83;;;12.30;99.90;;;;;;5049021;28;20080;-67
2023/08/31 03:44:47;;;;;;;4.35;3.78;;;12.30;99.90;;;;;;5048906;28;20041;-67
2023/08/31 03:47:13;;;;;;;5.38;3.78;;;12.20;99.90;;;;;;5048980;28;20044;-67
2023/08/31 03:49:38;;;;;;;4.43;3.88;;;12.30;99.90;;;;;;5049203;28;20354;-67
2023/08/31 03:52:04;;;;;;;4.78;3.95;;;12.30;99.90;;;;;;5049167;28;20053;-67
2023/08/31 03:54:30;;;;;;;4.38;3.35;;;12.30;99.90;;;;;;5048854;28;20098;-67
2023/08/31 03:56:56;;;;;;;4.70;4.18;;;12.20;99.90;;;;;;5049251;28;20363;-67
2023/08/31 03:59:21;;;;;;;4.82;3.60;;;12.20;99.90;;;;;;5049165;28;20453;-67
2023/08/31 04:01:47;;;;;;;6.32;3.80;;;12.30;99.90;;;;;;5048982;28;20048;-67
2023/08/31 04:04:13;;;;;;;5.55;3.03;;;12.30;99.90;;;;;;5049169;28;20047;-67
2023/08/31 04:06:38;;;;;;;4.57;3.63;;;12.20;99.90;;;;;;5031108;28;20095;-66
2023/08/31 04:09:04;;;;;;;4.25;3.85;;;12.20;99.90;;;;;;5031300;28;20472;-67
2023/08/31 04:11:30;;;;;;;5.93;3.75;;;12.20;99.90;;;;;;5031040;28;20045;-67
2023/08/31 04:13:55;;;;;;;5.25;3.83;;;12.20;99.90;;;;;;5048635;28;20041;-67
2023/08/31 04:16:21;;;;;;;4.20;3.67;;;12.20;99.90;;;;;;5049401;28;20412;-66
2023/08/31 04:18:51;;;;;;;4.80;3.45;;;12.20;99.90;;;;;;5050471;28;20037;-67
2023/08/31 04:21:17;;;;;;;3.47;3.10;;;12.20;99.90;;;;;;5048985;28;20041;-67
2023/08/31 04:23:43;;;;;;;5.03;3.25;;;12.20;99.90;;;;;;5034705;28;20048;-67
2023/08/31 04:26:12;;;;;;;4.82;3.83;;;12.20;99.90;;;;;;5052647;28;20163;-67
2023/08/31 04:28:39;;;;;;;5.07;3.38;;;12.20;99.90;;;;;;5034310;28;20103;-67
2023/08/31 04:31:07;;;;;;;6.40;3.70;;;12.20;99.90;;;;;;5034135;28;20140;-67
2023/08/31 04:33:37;;;;;;;6.50;3.45;;;12.20;99.90;;;;;;5052161;28;20033;-67
2023/08/31 04:36:04;;;;;;;4.18;3.15;;;12.20;99.90;;;;;;5052265;28;20045;-67
2023/08/31 04:38:31;;;;;;;4.82;3.20;;;12.20;99.90;;;;;;5034257;28;20084;-67
2023/08/31 04:41:01;;;;;;;5.60;3.00;;;12.20;99.90;;;;;;5050991;28;20067;-67
2023/08/31 04:43:27;;;;;;;6.30;3.20;;;12.20;99.90;;;;;;5052220;28;20049;-67
2023/08/31 04:45:53;;;;;;;7.47;3.42;;;12.20;99.90;;;;;;5052121;28;20057;-67
2023/08/31 04:48:19;;;;;;;4.30;2.65;;;12.30;99.90;;;;;;5033903;28;20186;-67
2023/08/31 04:50:45;;;;;;;4.13;2.67;;;12.20;99.90;;;;;;5033840;28;20088;-67
2023/08/31 04:53:11;;;;;;;4.50;2.88;;;12.30;99.90;;;;;;5052187;28;20076;-67
2023/08/31 04:55:37;;;;;;;4.43;2.90;;;12.30;99.90;;;;;;5051884;28;20127;-66
2023/08/31 04:58:03;;;;;;;4.22;3.20;;;12.20;99.90;;;;;;5033919;28;20045;-67
2023/08/31 05:00:30;;;;;;;5.78;3.03;;;12.30;99.90;;;;;;5033838;28;20045;-67
2023/08/31 05:02:56;;;;;;;2.85;2.50;;;12.30;99.90;;;;;;5051934;28;20480;-67
2023/08/31 05:05:22;;;;;;;3.75;2.72;;;12.30;99.90;;;;;;5051972;28;20033;-67
2023/08/31 05:07:47;;;;;;;3.83;2.80;;;12.30;99.90;;;;;;5051810;28;20119;-67
2023/08/31 05:10:13;;;;;;;4.30;2.53;;;12.20;99.90;;;;;;5051507;28;20086;-67
2023/08/31 05:12:39;;;;;;;4.90;2.70;;;12.30;99.90;;;;;;5051692;28;20037;-67
2023/08/31 05:15:05;;;;;;;3.17;2.60;;;12.30;99.90;;;;;;5051133;28;20111;-67
2023/08/31 05:17:31;;;;;;;4.80;3.03;;;12.30;99.90;;;;;;5051562;28;20488;-67
2023/08/31 05:19:57;;;;;;;5.22;2.50;;;12.30;99.90;;;;;;5051404;28;20060;-67
2023/08/31 05:22:23;;;;;;;4.13;2.60;;;12.40;99.90;;;;;;5051441;28;20056;-67
2023/08/31 05:24:48;;;;;;;6.03;3.15;;;12.40;99.90;;;;;;5033046;28;20387;-67
2023/08/31 05:27:15;;;;;;;4.70;2.70;;;12.40;99.90;;;;;;5051562;28;20041;-67
2023/08/31 05:29:40;;;;;;;3.95;2.90;;;12.50;99.90;;;;;;5051430;28;20545;-67
2023/08/31 05:32:06;;;;;;;4.20;2.70;;;12.60;99.90;;;;;;5051193;28;20044;-67
2023/08/31 05:34:37;;;;;;;3.50;2.67;;;12.80;99.90;;;;;;5051145;28;20079;-66
2023/08/31 05:37:04;;;;;;;6.38;2.78;;;12.80;99.90;;;;;;5051279;28;20045;-66
2023/08/31 05:39:30;;;;;;;3.83;2.75;;;12.90;99.90;;;;;;5051077;28;20048;-67
2023/08/31 05:41:56;;;;;;;4.90;3.10;;;12.90;99.90;;;;;;5051271;28;20106;-67
2023/08/31 05:44:22;;;;;;;7.63;2.75;;;13.10;99.90;;;;;;5051094;28;20041;-68
2023/08/31 05:46:48;;;;;;;4.15;2.63;;;13.10;99.90;;;;;;5033429;28;20385;-67
2023/08/31 05:49:14;;;;;;;3.42;2.80;;;13.10;99.90;;;;;;5051456;28;20045;-67
2023/08/31 05:51:39;;;;;;;5.65;2.53;;;13.10;99.90;;;;;;5051203;28;20045;-67
2023/08/31 05:54:10;;;;;;;8.30;3.53;;;13.10;99.90;;;;;;5051165;28;20482;-67
2023/08/31 05:56:36;;;;;;;5.03;2.45;;;13.10;99.90;;;;;;5033215;28;20098;-68
2023/08/31 05:59:02;;;;;;;3.85;2.55;;;13.10;99.90;;;;;;5033112;28;20049;-68
2023/08/31 06:01:27;;;;;;;5.45;3.10;;;13.20;99.90;;;;;;5050929;28;20049;-68
2023/08/31 06:03:53;;;;;;;7.38;2.92;;;13.30;99.90;;;;;;5050925;28;20059;-67
2023/08/31 06:06:19;;;;;;;2.53;2.20;;;13.30;99.90;;;;;;5050823;28;20122;-67
2023/08/31 06:08:45;;;;;;;4.63;2.60;;;13.40;99.90;;;;;;5048907;28;20044;-67
2023/08/31 06:11:10;;;;;;;6.03;2.85;;;13.50;99.90;;;;;;5054015;28;20047;-67
2023/08/31 06:13:37;;;;;;;4.45;2.72;;;13.40;99.90;;;;;;5018746;28;20037;-68
2023/08/31 06:16:03;;;;;;;3.95;2.65;;;13.50;99.90;;;;;;5033046;28;20067;-67
2023/08/31 06:18:29;;;;;;;3.80;2.38;;;13.50;99.90;;;;;;5051136;28;20037;-67
2023/08/31 06:20:55;;;;;;;3.67;2.35;;;13.60;99.90;;;;;;5032933;28;20051;-67
2023/08/31 06:23:21;;;;;;;5.10;3.17;;;13.60;99.90;;;;;;5033972;28;20040;-67
2023/08/31 06:25:47;;;;;;;6.60;2.80;;;13.60;99.90;;;;;;5032989;28;20044;-67
2023/08/31 06:28:13;;;;;;;3.78;2.35;;;13.70;99.90;;;;;;5040641;28;20041;-68
2023/08/31 06:30:38;;;;;;;5.82;3.05;;;13.60;99.90;;;;;;5070353;28;20040;-65
2023/08/31 06:33:04;;;;;;;4.50;2.72;;;13.70;99.90;;;;;;5070292;28;20518;-65
2023/08/31 06:35:33;;;;;;;6.53;2.13;;;13.70;99.90;;;;;;5070106;28;20040;-67
2023/08/31 06:37:59;;;;;;;6.65;2.42;;;13.80;99.90;;;;;;5070059;28;20044;-68
2023/08/31 06:40:25;;;;;;;5.50;2.50;;;13.80;99.90;;;;;;5052065;28;20050;-68
2023/08/31 06:42:51;;;;;;;9.38;2.63;;;13.80;99.90;;;;;;5069595;28;20059;-68
2023/08/31 06:45:16;;;;;;;3.90;2.38;;;13.90;99.90;;;;;;5069228;28;20028;-68
2023/08/31 06:47:42;;;;;;;4.07;2.85;;;13.90;99.90;;;;;;5070338;28;20131;-68
2023/08/31 06:50:08;;;;;;;5.78;2.67;;;14.00;99.90;;;;;;5069901;28;20106;-68
2023/08/31 06:52:34;;;;;;;6.28;2.60;;;14.00;99.90;;;;;;5069792;28;20049;-68
2023/08/31 06:55:00;;;;;;;3.45;2.50;;;14.10;99.90;;;;;;5069785;28;20082;-66
2023/08/31 06:57:27;;;;;;;5.68;2.70;;;14.10;99.90;;;;;;5069688;28;20465;-66
2023/08/31 06:59:53;;;;;;;4.57;2.65;;;14.30;99.90;;;;;;5069595;28;20044;-66
2023/08/31 07:02:19;;;;;;;3.85;2.47;;;14.30;99.90;;;;;;5051704;28;20040;-67
2023/08/31 07:04:46;;;;;;;6.40;2.65;;;14.20;99.90;;;;;;5069730;28;20114;-67
2023/08/31 07:07:14;;;;;;;4.97;2.70;;;14.30;99.90;;;;;;5051612;28;20049;-66
2023/08/31 07:09:44;;;;;;;4.72;2.65;;;14.30;99.90;;;;;;5069512;28;20403;-66
2023/08/31 07:12:10;;;;;;;4.30;2.75;;;14.30;99.90;;;;;;5069915;28;20352;-65
2023/08/31 07:14:36;;;;;;;6.32;2.55;;;14.40;99.90;;;;;;5069590;28;20060;-66
2023/08/31 07:17:02;;;;;;;4.75;2.42;;;14.40;99.90;;;;;;5069899;28;20071;-66
2023/08/31 07:19:27;;;;;;;7.28;2.83;;;14.40;99.90;;;;;;5069250;28;20051;-66
2023/08/31 07:21:56;;;;;;;8.40;2.60;;;14.50;99.90;;;;;;5069689;28;20051;-66
2023/08/31 07:24:23;;;;;;;5.35;2.47;;;14.40;99.90;;;;;;5069353;28;20040;-66
2023/08/31 07:26:49;;;;;;;4.57;2.65;;;14.40;99.90;;;;;;5069330;28;20039;-64
2023/08/31 07:29:15;;;;;;;3.22;2.33;;;14.50;99.90;;;;;;5051032;28;20048;-65
2023/08/31 07:31:41;;;;;;;7.75;2.28;;;14.50;99.90;;;;;;5069083;28;20056;-64
2023/08/31 07:34:07;;;;;;;4.90;2.17;;;14.50;99.90;;;;;;5068892;28;20041;-69
2023/08/31 07:36:33;;;;;;;5.05;2.90;;;14.50;99.90;;;;;;5051052;28;20103;-68
2023/08/31 07:38:59;;;;;;;4.10;2.35;;;14.50;99.90;;;;;;5069112;28;20040;-69
2023/08/31 07:41:25;;;;;;;4.30;1.92;;;14.50;99.90;;;;;;5046801;28;20381;-69
2023/08/31 07:43:50;;;;;;;3.05;1.50;;;14.60;99.90;;;;;;5039525;28;20047;-69
2023/08/31 07:46:18;;;;;;;6.05;2.17;;;14.60;99.90;;;;;;5020226;28;20739;-67
2023/08/31 07:48:44;;;;;;;3.55;1.75;;;14.50;99.90;;;;;;5025099;28;20055;-67
2023/08/31 07:51:09;;;;;;;7.10;1.90;;;14.50;99.90;;;;;;5030953;28;20124;-67
2023/08/31 07:53:35;;;;;;;3.40;1.77;;;14.60;99.90;;;;;;5030962;28;20120;-67
2023/08/31 07:56:01;;;;;;;4.50;2.08;;;14.60;99.90;;;;;;5050225;28;20488;-67
2023/08/31 07:58:27;;;;;;;4.43;1.88;;;14.70;99.90;;;;;;5052855;28;20064;-67
2023/08/31 08:00:54;;;;;;;4.03;1.77;;;14.70;99.90;;;;;;5052982;28;20112;-67
2023/08/31 08:03:20;;;;;;;6.15;1.65;;;14.80;99.90;;;;;;5034638;28;20045;-67
2023/08/31 08:05:45;;;;;;;5.32;2.10;;;14.80;99.90;;;;;;5053192;28;20037;-67
2023/08/31 08:08:11;;;;;;;6.70;1.85;;;14.80;99.90;;;;;;5053117;28;20412;-67
2023/08/31 08:10:37;;;;;;;2.55;1.70;;;14.80;99.90;;;;;;5053081;28;20351;-67
2023/08/31 08:13:03;;;;;;;3.55;1.30;;;14.80;99.90;;;;;;5052970;28;20492;-67
2023/08/31 08:15:29;;;;;;;7.05;1.65;;;14.80;99.90;;;;;;5053060;28;20048;-66
2023/08/31 08:17:57;;;;;;;3.13;1.73;;;14.70;99.90;;;;;;5045868;28;20049;-66
2023/08/31 08:20:23;;;;;;;6.82;1.50;;;14.90;99.90;;;;;;5038561;28;20054;-66
2023/08/31 08:22:52;;;;;;;3.08;1.42;;;15.00;99.90;;;;;;5032984;28;20122;-66
2023/08/31 08:25:21;;;;;;;3.47;1.58;;;15.10;99.90;;;;;;5014847;28;20055;-67
2023/08/31 08:27:47;;;;;;;3.00;1.40;;;15.20;99.90;;;;;;5039189;28;20048;-70
2023/08/31 08:30:15;;;;;;;3.95;1.27;;;15.30;99.90;;;;;;5051895;28;20051;-66
2023/08/31 08:32:41;;;;;;;3.25;1.30;;;15.30;99.90;;;;;;5052119;28;20037;-69
2023/08/31 08:35:07;;;;;;;1.58;1.15;;;15.40;99.90;;;;;;5052511;28;20040;-70
2023/08/31 08:37:33;;;;;;;4.38;1.67;;;15.50;99.90;;;;;;5052067;28;20459;-71
2023/08/31 08:39:59;;;;;;;2.78;1.10;;;15.60;99.90;;;;;;5034368;28;20037;-70
2023/08/31 08:42:25;;;;;;;2.50;1.00;;;15.60;99.90;;;;;;5052163;28;20124;-69
2023/08/31 08:44:51;;;;;;;3.25;0.90;;;15.60;99.90;;;;;;5034343;28;20064;-70
2023/08/31 08:47:18;;;;;;;5.35;1.20;;;15.60;99.90;;;;;;5051970;28;20045;-70
2023/08/31 08:49:44;;;;;;;4.38;1.08;;;15.70;99.90;;;;;;5052062;28;20041;-69
2023/08/31 08:52:11;;;;;;;3.78;1.27;;;15.80;99.90;;;;;;5051528;28;20091;-70
2023/08/31 08:54:38;;;;;;;5.50;1.10;;;15.80;99.90;;;;;;5052040;28;20041;-70
2023/08/31 08:57:04;;;;;;;2.40;0.88;;;15.90;99.90;;;;;;5051801;28;20056;-69
2023/08/31 08:59:33;;;;;;;4.13;1.20;;;15.90;99.90;;;;;;5051886;28;20090;-70
2023/08/31 09:01:59;;;;;;;1.90;0.90;;;16.00;99.90;;;;;;5051941;28;20111;-70
2023/08/31 09:04:25;;;;;;;2.42;0.82;;;16.10;99.90;;;;;;5034156;28;20452;-70
2023/08/31 09:06:51;;;;;;;1.45;0.70;;;16.10;99.90;;;;;;5033641;28;20139;-70
2023/08/31 09:09:17;;;;;;;1.50;0.70;;;16.00;99.90;;;;;;5033013;28;20098;-70
2023/08/31 09:11:43;;;;;;;2.58;0.77;;;15.90;99.90;;;;;;5033762;28;20430;-70
2023/08/31 09:14:19;;;;;;;1.55;0.70;;;15.90;99.90;;;;;;5051403;28;20040;-69
2023/08/31 09:16:50;;;;;;;2.30;0.70;;;15.90;99.90;;;;;;5051471;28;20056;-69
2023/08/31 09:19:23;;;;;;;2.08;0.70;;;15.80;99.90;;;;;;5051527;28;20142;-70
2023/08/31 09:21:50;;;;;;;0.90;0.90;;;15.80;99.90;;;;;;5033251;28;20041;-69
2023/08/31 09:24:19;;;;;;;3.63;0.70;;;15.90;99.90;;;;;;5051382;28;20040;-70
2023/08/31 09:26:53;;;;;;;3.60;0.80;;;15.90;99.90;;;;;;5051289;28;20047;-70
2023/08/31 09:29:19;;;;;;;2.83;1.00;;;16.00;99.90;;;;;;5051125;28;20053;-70
2023/08/31 09:31:46;;;;;;;2.63;0.82;;;16.10;99.90;;;;;;5033082;28;20052;-70
2023/08/31 09:34:13;;;;;;;4.40;0.85;;;16.20;99.90;;;;;;5033193;28;20048;-70
2023/08/31 09:36:39;;;;;;;2.10;0.80;;;16.30;99.90;;;;;;5050660;28;20048;-69
2023/08/31 09:39:09;;;;;;;5.70;1.10;;;16.40;99.90;;;;;;5050840;28;20041;-69
2023/08/31 09:41:35;;;;;;;2.03;1.00;;;16.40;99.90;;;;;;5033356;28;20087;-69
2023/08/31 09:44:18;;;;;;;1.00;0.90;;;16.40;99.90;;;;;;5050935;28;20496;-70
2023/08/31 09:46:44;;;;;;;1.45;0.90;;;16.40;99.90;;;;;;5033047;28;20043;-70
2023/08/31 09:49:15;;;;;;;3.00;1.20;;;16.50;99.90;;;;;;5032651;28;20098;-70
2023/08/31 09:51:45;;;;;;;1.25;0.90;;;16.50;99.90;;;;;;5051080;28;20435;-70
2023/08/31 09:54:15;;;;;;;1.80;0.65;;;16.60;99.90;;;;;;5050947;28;20044;-70
2023/08/31 09:56:43;;;;;;;1.48;0.80;;;16.60;99.90;;;;;;5016218;28;20044;-70
2023/08/31 09:59:11;;;;;;;2.30;0.85;;;16.60;99.90;;;;;;5033288;28;20532;-70
2023/08/31 10:01:37;;;;;;;5.43;1.15;;;16.70;99.90;;;;;;5033048;28;20107;-70
2023/08/31 10:04:03;;;;;;;2.55;0.82;;;16.80;99.90;;;;;;5050758;28;20523;-70
2023/08/31 10:06:30;;;;;;;2.72;0.80;;;16.90;99.90;;;;;;5050983;28;20045;-70
2023/08/31 10:08:56;;;;;;;3.58;1.30;;;16.80;99.90;;;;;;5050689;28;20445;-70
2023/08/31 10:11:25;;;;;;;2.17;0.98;;;16.80;99.90;;;;;;5050562;28;20142;-69
2023/08/31 10:13:53;;;;;;;2.10;0.90;;;16.70;99.90;;;;;;5050091;28;20049;-70
2023/08/31 10:16:19;;;;;;;2.05;0.68;;;16.60;99.90;;;;;;5050014;28;20715;-70
2023/08/31 10:18:45;;;;;;;4.32;0.80;;;16.60;99.90;;;;;;5050376;28;20400;-70
2023/08/31 10:21:15;;;;;;;3.45;0.95;;;16.60;99.90;;;;;;5050382;28;20036;-69
2023/08/31 10:23:48;;;;;;;10.68;1.02;;;16.60;99.90;;;;;;5050190;28;20127;-70
2023/08/31 10:26:23;;;;;;;;;;;16.60;99.90;;;;;;5032416;28;20041;-69
2023/08/31 10:28:49;;;;;;;2.78;0.90;;;16.70;99.90;;;;;;5050117;28;20539;-70
2023/08/31 10:31:19;;;;;;;2.65;0.85;;;16.70;99.90;;;;;;5050274;28;20045;-69
2023/08/31 10:33:46;;;;;;;3.63;0.70;;;16.80;99.90;;;;;;5049572;28;20613;-69
2023/08/31 10:36:19;;;;;;;3.40;0.90;;;16.80;99.90;;;;;;5032267;28;20032;-69
2023/08/31 10:39:00;;;;;;;3.88;0.80;;;16.80;99.90;;;;;;5049663;28;20052;-70
2023/08/31 10:41:33;;;;;;;1.50;0.90;;;16.80;99.90;;;;;;5050069;28;20037;-70
2023/08/31 10:43:59;;;;;;;1.05;0.88;;;16.80;99.90;;;;;;5049927;28;20049;-70
2023/08/31 10:46:33;;;;;;;1.70;0.80;;;16.70;99.90;;;;;;5049787;28;20037;-70
2023/08/31 10:49:14;;;;;;;0.88;0.70;;;16.60;99.90;;;;;;5049598;28;20094;-69
2023/08/31 10:51:41;;;;;;;1.45;0.60;;;16.40;99.90;;;;;;5032025;28;20044;-69
2023/08/31 10:54:19;;;;;;;1.02;0.88;;;16.20;99.90;;;;;;5031596;28;20388;-70
2023/08/31 10:56:52;;;;;;;3.60;0.90;;;16.00;99.90;;;;;;5049600;28;20083;-69
2023/08/31 10:59:19;;;;;;;3.25;0.88;;;15.90;99.90;;;;;;5031744;28;20589;-69
2023/08/31 11:01:56;;;;;;;2.58;0.70;;;15.90;99.90;;;;;;5049150;28;20547;-69
2023/08/31 11:04:29;;;;;;;2.25;0.90;;;16.10;99.90;;;;;;5049709;28;20076;-70
2023/08/31 11:07:17;;;;;;;1.88;0.75;;;16.20;99.90;;;;;;5049655;28;20037;-69
2023/08/31 11:09:44;;;;;;;3.10;0.80;;;16.20;99.90;;;;;;5049661;28;20060;-69
2023/08/31 11:12:10;;;;;;;3.88;0.88;;;16.30;99.90;;;;;;5049326;28;20041;-70
2023/08/31 11:14:36;;;;;;;3.83;1.10;;;16.30;99.90;;;;;;5031108;28;20037;-70
2023/08/31 11:17:04;;;;;;;2.10;0.90;;;16.30;99.90;;;;;;5049107;28;20407;-70
2023/08/31 11:19:31;;;;;;;5.80;1.13;;;16.50;99.90;;;;;;5049429;28;20076;-70
2023/08/31 11:21:56;;;;;;;1.80;0.90;;;16.60;99.90;;;;;;5031498;28;20102;-69
2023/08/31 11:24:23;;;;;;;1.30;0.85;;;16.80;99.90;;;;;;5049035;28;20037;-70
2023/08/31 11:26:52;;;;;;;4.68;1.08;;;16.90;99.90;;;;;;5049492;28;20032;-69
2023/08/31 11:29:17;;;;;;;3.95;0.88;;;17.00;99.90;;;;;;5031210;28;20048;-69
2023/08/31 11:31:43;;;;;;;2.65;0.90;;;17.10;99.90;;;;;;5048829;28;20041;-69
2023/08/31 11:34:13;;;;;;;3.35;0.90;;;17.20;99.90;;;;;;5049281;28;20041;-70
2023/08/31 11:36:41;;;;;;;2.42;0.90;;;17.30;99.90;;;;;;5049390;28;20033;-69
2023/08/31 11:39:08;;;;;;;2.72;0.75;;;17.40;99.90;;;;;;5048954;28;20036;-70
2023/08/31 11:41:36;;;;;;;2.35;1.00;;;17.40;99.90;;;;;;5048131;28;20443;-69
2023/08/31 11:44:03;;;;;;;4.88;0.80;;;17.40;99.90;;;;;;5048876;28;20488;-70
2023/08/31 11:46:30;;;;;;;1.45;0.75;;;17.20;99.90;;;;;;5030823;28;20059;-70
2023/08/31 11:48:56;;;;;;;2.00;0.90;;;17.20;99.90;;;;;;5049392;28;20373;-69
2023/08/31 11:51:22;;;;;;;1.27;0.68;;;17.10;99.90;;;;;;5031262;28;20041;-69
2023/08/31 11:53:48;;;;;;;3.88;1.10;;;17.10;99.90;;;;;;5031524;28;20554;-69
2023/08/31 11:56:13;;;;;;;3.95;0.93;;;17.10;99.90;;;;;;5049001;28;20123;-69
2023/08/31 11:58:42;;;;;;;3.53;0.90;;;17.00;99.90;;;;;;5049108;28;20124;-69
2023/08/31 12:01:08;;;;;;;4.00;1.30;;;17.00;99.90;;;;;;5015082;28;20381;-69
2023/08/31 12:03:54;;;;;;;8.68;1.40;;;17.10;99.90;;;;;;5049315;28;20052;-69
2023/08/31 12:06:19;;;;;;;2.97;0.82;;;17.10;99.90;;;;;;5049017;28;20119;-69
2023/08/31 12:08:45;;;;;;;6.82;1.15;;;17.20;99.90;;;;;;5048899;28;20404;-69
2023/08/31 12:11:11;;;;;;;1.65;0.82;;;17.30;99.90;;;;;;5030952;28;20445;-68
2023/08/31 12:13:37;;;;;;;2.33;0.70;;;17.20;99.90;;;;;;5048683;28;20045;-69
2023/08/31 12:16:04;;;;;;;4.35;0.70;;;17.30;99.90;;;;;;5048531;28;20095;-69
2023/08/31 12:18:37;;;;;;;1.65;0.57;;;17.20;99.90;;;;;;5048713;28;20045;-69
2023/08/31 12:21:04;;;;;;;1.30;0.70;;;17.20;99.90;;;;;;5030632;28;20041;-68
2023/08/31 12:23:30;;;;;;;1.25;0.75;;;17.20;99.90;;;;;;5048564;28;20091;-69
2023/08/31 12:25:56;;;;;;;5.32;0.80;;;17.20;99.90;;;;;;5048316;28;20076;-68
2023/08/31 12:28:23;;;;;;;1.60;0.80;;;17.20;99.90;;;;;;5014165;28;20056;-69
2023/08/31 12:30:51;;;;;;;2.00;1.10;;;17.20;99.90;;;;;;5048554;28;20098;-69
2023/08/31 12:33:18;;;;;;;1.73;0.80;;;17.30;99.90;;;;;;5030571;28;20048;-69
2023/08/31 12:35:44;;;;;;;3.28;1.02;;;17.40;99.90;;;;;;5048745;28;20404;-68
2023/08/31 12:38:10;;;;;;;5.43;1.40;;;17.50;99.90;;;;;;5048332;28;20053;-69
2023/08/31 12:40:36;;;;;;;2.75;1.08;;;17.50;99.90;;;;;;5048545;28;20045;-69
2023/08/31 12:43:02;;;;;;;3.72;0.82;;;17.50;99.90;;;;;;5049822;28;20037;-70
2023/08/31 12:45:28;;;;;;;1.60;0.85;;;17.60;99.90;;;;;;5033880;28;20064;-69
2023/08/31 12:47:53;;;;;;;2.10;0.98;;;17.60;99.90;;;;;;5034264;28;20049;-69
2023/08/31 12:50:19;;;;;;;2.75;1.00;;;17.70;99.90;;;;;;5034213;28;20409;-69
2023/08/31 12:52:46;;;;;;;1.95;0.93;;;17.70;99.90;;;;;;5052000;28;20045;-69
2023/08/31 12:55:15;;;;;;;1.27;0.90;;;17.70;99.90;;;;;;5052135;28;20146;-69
2023/08/31 12:57:43;;;;;;;4.00;1.00;;;17.70;99.90;;;;;;5051950;28;20045;-69
2023/08/31 13:00:13;;;;;;;2.08;1.13;;;17.60;99.90;;;;;;5034164;28;20049;-69
2023/08/31 13:02:40;;;;;;;1.85;0.77;;;17.50;99.90;;;;;;5052508;28;20036;-69
2023/08/31 13:05:07;;;;;;;3.45;0.90;;;17.50;99.90;;;;;;5051182;28;20044;-69
2023/08/31 13:07:34;;;;;;;4.53;0.85;;;17.40;99.90;;;;;;5052537;28;20059;-69
2023/08/31 13:10:03;;;;;;;2.70;0.70;;;17.40;99.90;;;;;;5053029;28;20037;-69
2023/08/31 13:12:33;;;;;;;1.98;0.85;;;17.40;99.90;;;;;;5051619;28;20207;-69
2023/08/31 13:14:59;;;;;;;2.60;0.70;;;17.30;99.90;;;;;;5033497;28;20052;-69
2023/08/31 13:17:28;;;;;;;1.27;0.65;;;17.30;99.90;;;;;;5051777;28;20435;-69
2023/08/31 13:19:54;;;;;;;1.55;0.77;;;17.20;99.90;;;;;;5051940;28;20063;-69
2023/08/31 13:22:21;;;;;;;8.30;1.80;;;17.20;99.90;;;;;;5051815;28;20036;-69
2023/08/31 13:24:47;;;;;;;4.00;1.00;;;17.20;99.90;;;;;;5051161;28;20115;-69
2023/08/31 13:27:15;;;;;;;1.98;0.95;;;17.20;99.90;;;;;;5051137;28;20136;-69
2023/08/31 13:29:42;;;;;;;2.13;1.00;;;17.20;99.90;;;;;;5051453;28;20128;-69
2023/08/31 13:32:07;;;;;;;1.23;0.90;;;17.10;99.90;;;;;;5033284;28;20102;-69
2023/08/31 13:34:34;;;;;;;2.10;0.80;;;17.00;99.90;;;;;;5051239;28;20049;-69
2023/08/31 13:36:59;;;;;;;1.98;0.60;;;17.00;99.90;;;;;;5051124;28;20032;-69